Laramie, WY

2:25 PM MDT on April 28, 2017 (GMT -0600)
Laramie Regional | | Change Station
Active Advisory: Winter Weather Advisory

Elev 7277 ft 41.31 °N, 105.67 °W | Updated 32 minutes ago

Overcast
Overcast
34 °F
Feels Like 25 °F
N
14
Wind Variable Wind from NNE

Today
High -- | Low -- °F
--% Chance of Precip.
Yesterday
High -- | Low -- °F
Precip. -- in
Pressure 29.71 in
Visibility 10.0 miles
Clouds Mostly Cloudy 2500 ft
Overcast 3300 ft
Windchill 25 °F
Dew Point 23 °F
Humidity 64%
Rainfall 0.00 in
Snow Depth Not available.
6:03 AM 7:57 PM
Waxing Crescent, 8% visible
METAR KLAR 281953Z AUTO 02012KT 10SM BKN025 OVC033 01/M05 A2973 RMK AO2 SNE35 SLP061 P0000 T00111050
Pressure 29.71 in
Visibility 10.0 miles
Clouds Mostly Cloudy 2500 ft
Overcast 3300 ft
Windchill 25 °F
Dew Point 23 °F
Humidity 64%
Rainfall 0.00 in
Snow Depth Not available.
6:03 AM 7:57 PM
Waxing Crescent, 8% visible
METAR KLAR 281953Z AUTO 02012KT 10SM BKN025 OVC033 01/M05 A2973 RMK AO2 SNE35 SLP061 P0000 T00111050

Get Your Daily Forecast Email!

Thanks for signing up!

Be on the lookout for a verification email in your inbox.

You'll start receiving severe weather alerts in your inbox..

×

10-Day Weather Forecast

Almanac

Astronomy

Apr. 28, 2017 Rise Set
Actual Time
Civil Twilight
Nautical Twilight
Astronomical Twilight
Moon
Length of Visible Light
Length of Day
Tomorrow will be .
, % of the Moon is Illuminated

Today's Extremes

State Highs State Lows

Community

WunderPhotos

WunderBlog® & News

Nearby

Air Quality

  Air Quality AQ Index Pollutant
Not available.

Snow Depth

Station Depth Elevation

Earthquake Activity

City Distance Mag. Time & Date
Minimum magnitude displayed is 2.5.

Coastal Water Temperatures

Place Temperature

Stations

Nearby Weather Stations

Station Location Temp. Windchill Dew Point Humidity Wind Precip. Elev Updated Type
                   

Watches & Warnings

Winter Weather Advisory
Issued: 9:53 AM MDT Apr. 28, 2017 – National Weather Service

... Winter Weather Advisory remains in effect until midnight MDT
tonight...

* timing... snow will increase gradually late this morning into the
afternoon, with periods of moderate snow through this evening.

* Total snow accumulations... 4 to 6 inches over the valleys and
foothills, with 6 to 8 inches over the central and southern
Laramie range.

* Winds/visibility... light winds will become northeast 15 to 25
mph this afternoon. Visibilities will be reduced to a half
mile in snow and blowing snow.

* Impacts... hazardous travel is likely due to snow covered roads
and low visibilities.

Precautionary/preparedness actions...

A Winter Weather Advisory for snow and blowing snow means that
snow and gusty winds will create restricted visibilities and
drifting snow along area roadways. Use caution when traveling...
especially in open areas.